sensor_id;sensor_type;location;lat;lon;timestamp;temperature;humidity
25718;DHT22;13574;52.040;5.692;2022-09-02T00:00:08;21.30;75.40
25718;DHT22;13574;52.040;5.692;2022-09-02T00:03:03;21.10;75.30
25718;DHT22;13574;52.040;5.692;2022-09-02T00:06:01;21.10;75.50
25718;DHT22;13574;52.040;5.692;2022-09-02T00:08:28;21.10;75.60
25718;DHT22;13574;52.040;5.692;2022-09-02T00:11:18;20.90;75.80
25718;DHT22;13574;52.040;5.692;2022-09-02T00:13:49;20.60;76.60
25718;DHT22;13574;52.040;5.692;2022-09-02T00:16:16;20.80;76.30
25718;DHT22;13574;52.040;5.692;2022-09-02T00:18:54;20.60;76.30
25718;DHT22;13574;52.040;5.692;2022-09-02T00:21:23;20.60;76.80
25718;DHT22;13574;52.040;5.692;2022-09-02T00:23:51;20.60;76.60
25718;DHT22;13574;52.040;5.692;2022-09-02T00:26:22;20.90;76.20
25718;DHT22;13574;52.040;5.692;2022-09-02T00:28:50;21.00;75.80
25718;DHT22;13574;52.040;5.692;2022-09-02T00:31:39;20.70;76.20
25718;DHT22;13574;52.040;5.692;2022-09-02T00:34:10;20.50;76.50
25718;DHT22;13574;52.040;5.692;2022-09-02T00:36:56;20.60;76.60
25718;DHT22;13574;52.040;5.692;2022-09-02T00:39:31;20.50;76.90
25718;DHT22;13574;52.040;5.692;2022-09-02T00:42:10;20.40;77.00
25718;DHT22;13574;52.040;5.692;2022-09-02T00:44:48;20.40;77.20
25718;DHT22;13574;52.040;5.692;2022-09-02T00:47:34;20.40;77.20
25718;DHT22;13574;52.040;5.692;2022-09-02T00:50:33;20.40;77.00
25718;DHT22;13574;52.040;5.692;2022-09-02T00:53:08;20.40;77.20
25718;DHT22;13574;52.040;5.692;2022-09-02T00:56:12;20.40;77.20
25718;DHT22;13574;52.040;5.692;2022-09-02T00:59:21;20.50;77.00
25718;DHT22;13574;52.040;5.692;2022-09-02T01:02:15;20.40;77.10
25718;DHT22;13574;52.040;5.692;2022-09-02T01:11:13;20.00;78.10
25718;DHT22;13574;52.040;5.692;2022-09-02T01:13:53;20.00;78.10
25718;DHT22;13574;52.040;5.692;2022-09-02T01:16:52;20.10;77.80
25718;DHT22;13574;52.040;5.692;2022-09-02T01:22:57;19.90;78.50
25718;DHT22;13574;52.040;5.692;2022-09-02T01:25:57;20.10;78.10
25718;DHT22;13574;52.040;5.692;2022-09-02T01:28:57;20.20;78.00
25718;DHT22;13574;52.040;5.692;2022-09-02T01:31:46;20.00;78.30
25718;DHT22;13574;52.040;5.692;2022-09-02T01:37:04;19.80;78.40
25718;DHT22;13574;52.040;5.692;2022-09-02T01:43:23;19.90;78.70
25718;DHT22;13574;52.040;5.692;2022-09-02T01:46:18;19.80;78.80
25718;DHT22;13574;52.040;5.692;2022-09-02T01:48:47;19.70;79.00
25718;DHT22;13574;52.040;5.692;2022-09-02T01:51:39;19.70;79.10
25718;DHT22;13574;52.040;5.692;2022-09-02T01:54:07;19.60;79.10
25718;DHT22;13574;52.040;5.692;2022-09-02T01:57:19;19.70;79.10
25718;DHT22;13574;52.040;5.692;2022-09-02T02:00:15;19.50;79.90
25718;DHT22;13574;52.040;5.692;2022-09-02T02:03:05;19.60;79.40
25718;DHT22;13574;52.040;5.692;2022-09-02T02:05:34;19.50;79.50
25718;DHT22;13574;52.040;5.692;2022-09-02T02:08:21;19.50;79.70
25718;DHT22;13574;52.040;5.692;2022-09-02T02:10:53;19.70;79.50
25718;DHT22;13574;52.040;5.692;2022-09-02T02:14:02;19.50;79.70
25718;DHT22;13574;52.040;5.692;2022-09-02T02:17:04;19.70;79.50
25718;DHT22;13574;52.040;5.692;2022-09-02T02:20:00;19.70;79.50
25718;DHT22;13574;52.040;5.692;2022-09-02T02:22:30;19.50;79.80
25718;DHT22;13574;52.040;5.692;2022-09-02T02:25:05;19.50;79.70
25718;DHT22;13574;52.040;5.692;2022-09-02T02:27:36;19.50;80.10
25718;DHT22;13574;52.040;5.692;2022-09-02T02:30:03;19.40;80.00
25718;DHT22;13574;52.040;5.692;2022-09-02T02:33:15;19.20;80.40
25718;DHT22;13574;52.040;5.692;2022-09-02T02:39:16;19.40;80.00
25718;DHT22;13574;52.040;5.692;2022-09-02T02:42:01;19.40;80.10
25718;DHT22;13574;52.040;5.692;2022-09-02T02:44:53;19.40;80.20
25718;DHT22;13574;52.040;5.692;2022-09-02T02:47:30;19.50;80.10
25718;DHT22;13574;52.040;5.692;2022-09-02T02:49:58;19.50;79.90
25718;DHT22;13574;52.040;5.692;2022-09-02T02:55:33;19.40;80.70
25718;DHT22;13574;52.040;5.692;2022-09-02T02:58:19;19.30;80.30
25718;DHT22;13574;52.040;5.692;2022-09-02T03:01:01;19.30;80.80
25718;DHT22;13574;52.040;5.692;2022-09-02T03:03:32;19.30;80.70
25718;DHT22;13574;52.040;5.692;2022-09-02T03:06:11;19.40;80.60
25718;DHT22;13574;52.040;5.692;2022-09-02T03:09:14;19.30;80.70
25718;DHT22;13574;52.040;5.692;2022-09-02T03:12:08;19.30;80.80
25718;DHT22;13574;52.040;5.692;2022-09-02T03:14:38;19.20;80.70
25718;DHT22;13574;52.040;5.692;2022-09-02T03:17:19;19.30;80.80
25718;DHT22;13574;52.040;5.692;2022-09-02T03:19:58;19.30;80.70
25718;DHT22;13574;52.040;5.692;2022-09-02T03:25:45;19.40;80.20
25718;DHT22;13574;52.040;5.692;2022-09-02T03:28:25;19.30;80.60
25718;DHT22;13574;52.040;5.692;2022-09-02T03:30:58;19.30;80.70
25718;DHT22;13574;52.040;5.692;2022-09-02T03:33:44;19.10;81.00
25718;DHT22;13574;52.040;5.692;2022-09-02T03:36:44;19.30;80.90
25718;DHT22;13574;52.040;5.692;2022-09-02T03:39:42;19.00;81.20
25718;DHT22;13574;52.040;5.692;2022-09-02T03:42:39;18.90;81.60
25718;DHT22;13574;52.040;5.692;2022-09-02T03:45:19;19.10;81.50
25718;DHT22;13574;52.040;5.692;2022-09-02T03:47:51;19.10;81.00
25718;DHT22;13574;52.040;5.692;2022-09-02T03:50:43;19.10;81.00
25718;DHT22;13574;52.040;5.692;2022-09-02T03:53:17;19.00;81.00
25718;DHT22;13574;52.040;5.692;2022-09-02T03:56:19;19.20;81.10
25718;DHT22;13574;52.040;5.692;2022-09-02T03:58:58;19.30;80.50
25718;DHT22;13574;52.040;5.692;2022-09-02T04:02:01;19.00;80.70
25718;DHT22;13574;52.040;5.692;2022-09-02T04:04:39;19.10;81.00
25718;DHT22;13574;52.040;5.692;2022-09-02T04:07:10;18.90;81.30
25718;DHT22;13574;52.040;5.692;2022-09-02T04:10:04;19.00;81.10
25718;DHT22;13574;52.040;5.692;2022-09-02T04:12:47;19.10;81.00
25718;DHT22;13574;52.040;5.692;2022-09-02T04:18:19;18.80;81.50
25718;DHT22;13574;52.040;5.692;2022-09-02T04:21:00;19.00;81.40
25718;DHT22;13574;52.040;5.692;2022-09-02T04:23:29;19.10;81.00
25718;DHT22;13574;52.040;5.692;2022-09-02T04:26:08;19.10;80.90
25718;DHT22;13574;52.040;5.692;2022-09-02T04:28:50;19.10;80.90
25718;DHT22;13574;52.040;5.692;2022-09-02T04:31:29;19.20;81.40
25718;DHT22;13574;52.040;5.692;2022-09-02T04:34:30;19.10;80.60
25718;DHT22;13574;52.040;5.692;2022-09-02T04:37:03;18.70;81.50
25718;DHT22;13574;52.040;5.692;2022-09-02T04:39:34;18.70;82.20
25718;DHT22;13574;52.040;5.692;2022-09-02T04:42:09;18.80;81.90
25718;DHT22;13574;52.040;5.692;2022-09-02T04:44:38;19.00;81.70
25718;DHT22;13574;52.040;5.692;2022-09-02T04:47:17;18.90;81.50
25718;DHT22;13574;52.040;5.692;2022-09-02T04:50:08;19.10;81.10
25718;DHT22;13574;52.040;5.692;2022-09-02T04:55:43;18.70;81.70
25718;DHT22;13574;52.040;5.692;2022-09-02T05:02:23;18.60;82.60
25718;DHT22;13574;52.040;5.692;2022-09-02T05:04:51;18.70;82.10
25718;DHT22;13574;52.040;5.692;2022-09-02T05:07:20;18.80;82.10
25718;DHT22;13574;52.040;5.692;2022-09-02T05:09:58;19.00;81.60
25718;DHT22;13574;52.040;5.692;2022-09-02T05:12:33;19.10;81.20
25718;DHT22;13574;52.040;5.692;2022-09-02T05:15:09;19.20;81.00
25718;DHT22;13574;52.040;5.692;2022-09-02T05:18:02;19.10;81.00
25718;DHT22;13574;52.040;5.692;2022-09-02T05:20:37;19.00;81.20
25718;DHT22;13574;52.040;5.692;2022-09-02T05:23:06;19.20;81.20
25718;DHT22;13574;52.040;5.692;2022-09-02T05:25:57;19.10;81.00
25718;DHT22;13574;52.040;5.692;2022-09-02T05:28:35;18.90;81.80
25718;DHT22;13574;52.040;5.692;2022-09-02T05:31:33;18.70;82.00
25718;DHT22;13574;52.040;5.692;2022-09-02T05:34:09;18.90;81.80
25718;DHT22;13574;52.040;5.692;2022-09-02T05:39:28;18.80;81.90
25718;DHT22;13574;52.040;5.692;2022-09-02T05:42:11;18.90;81.90
25718;DHT22;13574;52.040;5.692;2022-09-02T05:44:51;19.00;81.80
25718;DHT22;13574;52.040;5.692;2022-09-02T05:47:27;19.20;81.50
25718;DHT22;13574;52.040;5.692;2022-09-02T05:50:24;19.40;81.00
25718;DHT22;13574;52.040;5.692;2022-09-02T05:53:28;19.30;80.80
25718;DHT22;13574;52.040;5.692;2022-09-02T05:55:54;19.30;81.10
25718;DHT22;13574;52.040;5.692;2022-09-02T05:58:28;19.10;81.50
25718;DHT22;13574;52.040;5.692;2022-09-02T06:01:15;19.20;81.80
25718;DHT22;13574;52.040;5.692;2022-09-02T06:03:52;19.10;81.80
25718;DHT22;13574;52.040;5.692;2022-09-02T06:06:19;19.20;81.90
25718;DHT22;13574;52.040;5.692;2022-09-02T06:08:47;19.30;81.50
25718;DHT22;13574;52.040;5.692;2022-09-02T06:11:16;19.20;81.30
25718;DHT22;13574;52.040;5.692;2022-09-02T06:24:42;19.30;81.70
25718;DHT22;13574;52.040;5.692;2022-09-02T07:26:44;23.00;74.80
25718;DHT22;13574;52.040;5.692;2022-09-02T08:03:57;23.60;73.50
25718;DHT22;13574;52.040;5.692;2022-09-02T08:37:05;25.40;71.10
25718;DHT22;13574;52.040;5.692;2022-09-02T09:32:43;26.90;69.70
25718;DHT22;13574;52.040;5.692;2022-09-02T09:36:00;27.00;69.70
25718;DHT22;13574;52.040;5.692;2022-09-02T10:12:52;27.10;69.70
25718;DHT22;13574;52.040;5.692;2022-09-02T10:35:39;27.90;68.60
25718;DHT22;13574;52.040;5.692;2022-09-02T10:38:45;28.00;68.60
25718;DHT22;13574;52.040;5.692;2022-09-02T10:48:29;27.70;68.90
25718;DHT22;13574;52.040;5.692;2022-09-02T10:54:46;28.30;68.30
25718;DHT22;13574;52.040;5.692;2022-09-02T11:01:22;28.20;68.00
25718;DHT22;13574;52.040;5.692;2022-09-02T11:05:08;28.30;67.50
25718;DHT22;13574;52.040;5.692;2022-09-02T11:07:53;28.20;67.60
25718;DHT22;13574;52.040;5.692;2022-09-02T11:10:36;27.80;68.70
25718;DHT22;13574;52.040;5.692;2022-09-02T11:19:31;28.00;68.90
25718;DHT22;13574;52.040;5.692;2022-09-02T11:25:51;28.30;66.10
25718;DHT22;13574;52.040;5.692;2022-09-02T11:28:54;28.10;67.20
25718;DHT22;13574;52.040;5.692;2022-09-02T11:31:50;28.10;68.20
25718;DHT22;13574;52.040;5.692;2022-09-02T11:34:43;28.40;67.80
25718;DHT22;13574;52.040;5.692;2022-09-02T11:37:27;28.70;66.10
25718;DHT22;13574;52.040;5.692;2022-09-02T11:40:20;28.40;65.70
25718;DHT22;13574;52.040;5.692;2022-09-02T11:58:51;28.00;66.40
25718;DHT22;13574;52.040;5.692;2022-09-02T12:41:38;28.50;60.60
25718;DHT22;13574;52.040;5.692;2022-09-02T12:50:31;28.60;62.70
25718;DHT22;13574;52.040;5.692;2022-09-02T12:58:53;29.10;62.10
25718;DHT22;13574;52.040;5.692;2022-09-02T13:01:46;29.20;61.70
25718;DHT22;13574;52.040;5.692;2022-09-02T13:31:39;28.80;62.10
25718;DHT22;13574;52.040;5.692;2022-09-02T13:34:12;29.10;61.90
25718;DHT22;13574;52.040;5.692;2022-09-02T13:37:04;29.10;61.20
25718;DHT22;13574;52.040;5.692;2022-09-02T13:42:34;29.10;60.40
25718;DHT22;13574;52.040;5.692;2022-09-02T13:45:24;29.10;61.30
25718;DHT22;13574;52.040;5.692;2022-09-02T13:47:58;29.40;61.40
25718;DHT22;13574;52.040;5.692;2022-09-02T13:50:34;29.10;60.50
25718;DHT22;13574;52.040;5.692;2022-09-02T13:53:07;29.00;61.10
25718;DHT22;13574;52.040;5.692;2022-09-02T13:55:33;28.70;61.10
25718;DHT22;13574;52.040;5.692;2022-09-02T13:58:07;29.00;61.70
25718;DHT22;13574;52.040;5.692;2022-09-02T14:00:38;29.10;61.90
25718;DHT22;13574;52.040;5.692;2022-09-02T14:03:11;28.80;62.10
25718;DHT22;13574;52.040;5.692;2022-09-02T14:05:42;28.80;63.40
25718;DHT22;13574;52.040;5.692;2022-09-02T14:08:22;28.90;63.10
25718;DHT22;13574;52.040;5.692;2022-09-02T14:10:59;29.00;63.20
25718;DHT22;13574;52.040;5.692;2022-09-02T14:13:49;29.00;62.60
25718;DHT22;13574;52.040;5.692;2022-09-02T15:18:17;28.80;61.20
25718;DHT22;13574;52.040;5.692;2022-09-02T15:21:20;28.70;61.70
25718;DHT22;13574;52.040;5.692;2022-09-02T15:23:58;28.70;61.30
25718;DHT22;13574;52.040;5.692;2022-09-02T15:27:06;28.90;61.10
25718;DHT22;13574;52.040;5.692;2022-09-02T15:33:36;29.10;61.00
25718;DHT22;13574;52.040;5.692;2022-09-02T15:36:28;29.00;60.60
25718;DHT22;13574;52.040;5.692;2022-09-02T15:38:58;28.80;60.20
25718;DHT22;13574;52.040;5.692;2022-09-02T15:41:58;28.50;60.80
25718;DHT22;13574;52.040;5.692;2022-09-02T15:44:29;28.50;60.70
25718;DHT22;13574;52.040;5.692;2022-09-02T15:47:12;28.50;60.80
25718;DHT22;13574;52.040;5.692;2022-09-02T15:59:17;28.80;60.90
25718;DHT22;13574;52.040;5.692;2022-09-02T16:01:47;28.90;61.00
25718;DHT22;13574;52.040;5.692;2022-09-02T16:04:17;28.80;60.40
25718;DHT22;13574;52.040;5.692;2022-09-02T16:06:48;28.80;60.80
25718;DHT22;13574;52.040;5.692;2022-09-02T16:09:19;28.70;60.90
25718;DHT22;13574;52.040;5.692;2022-09-02T16:11:49;28.90;60.70
25718;DHT22;13574;52.040;5.692;2022-09-02T16:14:16;28.90;60.60
25718;DHT22;13574;52.040;5.692;2022-09-02T16:17:01;28.90;60.30
25718;DHT22;13574;52.040;5.692;2022-09-02T16:19:26;28.80;60.10
25718;DHT22;13574;52.040;5.692;2022-09-02T16:21:53;28.80;60.70
25718;DHT22;13574;52.040;5.692;2022-09-02T16:24:22;28.70;59.80
25718;DHT22;13574;52.040;5.692;2022-09-02T16:27:26;28.50;60.10
25718;DHT22;13574;52.040;5.692;2022-09-02T16:30:13;28.40;60.70
25718;DHT22;13574;52.040;5.692;2022-09-02T16:36:43;28.00;61.00
25718;DHT22;13574;52.040;5.692;2022-09-02T17:14:28;28.20;60.40
25718;DHT22;13574;52.040;5.692;2022-09-02T18:00:29;27.00;62.30
25718;DHT22;13574;52.040;5.692;2022-09-02T19:05:00;25.90;65.30
25718;DHT22;13574;52.040;5.692;2022-09-02T19:15:34;25.90;65.60
25718;DHT22;13574;52.040;5.692;2022-09-02T19:29:14;25.40;66.70
